Time;durP1;ratioP1;P1;durP2;ratioP2;P2;SDS_P1;SDS_P2;PMS_P1;PMS_P2;Temp;Humidity;BMP_temperature;BMP_pressure;BME280_temperature;BME280_humidity;BME280_pressure;Samples;Min_cycle;Max_cycle;Signal;HPM_P1;HPM_P2
2023/10/01 00:00:57;;;;;;;11.23;4.50;;;;;;;;;;4925684;29;20111;-81
2023/10/01 00:03:23;;;;;;;12.13;4.82;;;;;;;;;;4921832;29;20035;-81
2023/10/01 00:05:50;;;;;;;11.10;4.70;;;;;;;;;;4921455;29;20036;-81
2023/10/01 00:08:16;;;;;;;10.32;4.57;;;;;;;;;;4922250;29;20060;-81
2023/10/01 00:10:42;;;;;;;13.30;5.10;;;;;;;;;;4922114;29;20035;-81
2023/10/01 00:13:08;;;;;;;10.63;5.10;;;;;;;;;;4921959;29;20024;-81
2023/10/01 00:15:34;;;;;;;17.20;5.97;;;;;;;;;;4921927;29;20024;-81
2023/10/01 00:18:07;;;;;;;10.40;5.00;;;;;;;;;;4920064;29;20543;-81
2023/10/01 00:20:33;;;;;;;13.38;5.75;;;;;;;;;;4920732;29;20079;-81
2023/10/01 00:23:02;;;;;;;11.35;5.30;;;;;;;;;;4920969;29;20040;-81
2023/10/01 00:25:28;;;;;;;11.55;5.70;;;;;;;;;;4921116;29;20341;-81
2023/10/01 00:27:55;;;;;;;14.80;5.88;;;;;;;;;;4921033;29;20039;-81
2023/10/01 00:30:21;;;;;;;14.55;6.22;;;;;;;;;;4919301;29;20368;-81
2023/10/01 00:32:48;;;;;;;10.98;6.20;;;;;;;;;;4919096;29;20073;-81
2023/10/01 00:35:14;;;;;;;14.10;6.40;;;;;;;;;;4919800;29;20024;-81
2023/10/01 00:37:40;;;;;;;11.55;6.13;;;;;;;;;;4922113;29;20036;-81
2023/10/01 00:40:08;;;;;;;14.65;6.18;;;;;;;;;;4922561;29;20056;-81
2023/10/01 00:42:35;;;;;;;15.13;6.55;;;;;;;;;;4920888;29;20060;-81
2023/10/01 00:45:02;;;;;;;15.68;6.20;;;;;;;;;;4922426;29;20028;-82
2023/10/01 00:47:28;;;;;;;17.65;7.07;;;;;;;;;;4920220;29;20399;-81
2023/10/01 00:49:54;;;;;;;9.40;6.68;;;;;;;;;;4920316;29;20036;-81
2023/10/01 00:52:23;;;;;;;13.85;7.22;;;;;;;;;;4920321;29;20032;-81
2023/10/01 00:54:51;;;;;;;11.63;6.85;;;;;;;;;;4921050;29;20115;-81
2023/10/01 00:57:17;;;;;;;19.67;7.15;;;;;;;;;;4922403;29;20024;-81
2023/10/01 00:59:44;;;;;;;14.90;7.10;;;;;;;;;;4921925;29;20145;-81
2023/10/01 01:02:10;;;;;;;17.13;6.97;;;;;;;;;;4923755;29;20028;-81
2023/10/01 01:04:42;;;;;;;16.60;7.05;;;;;;;;;;4924022;29;20390;-81
2023/10/01 01:07:16;;;;;;;15.18;6.75;;;;;;;;;;4923521;29;20031;-81
2023/10/01 01:09:45;;;;;;;17.02;6.28;;;;;;;;;;4921219;29;20032;-81
2023/10/01 01:12:12;;;;;;;14.93;6.47;;;;;;;;;;4921034;29;20039;-81
2023/10/01 01:14:39;;;;;;;17.52;6.90;;;;;;;;;;4918863;29;20475;-81
2023/10/01 01:17:05;;;;;;;13.43;6.55;;;;;;;;;;4920239;29;20386;-81
2023/10/01 01:19:34;;;;;;;16.17;7.32;;;;;;;;;;4920573;29;20042;-81
2023/10/01 01:22:03;;;;;;;14.98;6.57;;;;;;;;;;4920266;29;20028;-81
2023/10/01 01:24:29;;;;;;;13.30;6.80;;;;;;;;;;4920189;29;20051;-81
2023/10/01 01:27:00;;;;;;;13.23;6.25;;;;;;;;;;4927018;29;20282;-81
2023/10/01 01:29:34;;;;;;;17.92;6.22;;;;;;;;;;4923250;29;20028;-81
2023/10/01 01:32:15;;;;;;;12.65;6.53;;;;;;;;;;4922199;29;20032;-81
2023/10/01 01:34:45;;;;;;;21.33;6.90;;;;;;;;;;4920191;29;20124;-81
2023/10/01 01:37:36;;;;;;;;;;;;;;;;;;4919854;29;20025;-81
2023/10/01 01:40:09;;;;;;;12.05;6.72;;;;;;;;;;4920694;29;20405;-81
2023/10/01 01:42:35;;;;;;;19.02;7.45;;;;;;;;;;4920367;29;20016;-81
2023/10/01 01:45:19;;;;;;;17.85;7.15;;;;;;;;;;4921343;29;20490;-81
2023/10/01 01:47:45;;;;;;;11.90;7.05;;;;;;;;;;4924994;29;20120;-81
2023/10/01 01:50:26;;;;;;;16.73;7.35;;;;;;;;;;4924233;29;20068;-81
2023/10/01 01:52:52;;;;;;;14.85;7.15;;;;;;;;;;4922329;29;20348;-81
2023/10/01 01:55:29;;;;;;;16.38;7.80;;;;;;;;;;4922039;29;20024;-81
2023/10/01 02:00:35;;;;;;;15.65;8.18;;;;;;;;;;4918692;29;20048;-81
2023/10/01 02:03:10;;;;;;;14.05;7.78;;;;;;;;;;4919604;29;20027;-81
2023/10/01 02:05:37;;;;;;;15.77;8.65;;;;;;;;;;4920025;29;20036;-81
2023/10/01 02:08:07;;;;;;;16.48;8.88;;;;;;;;;;4919184;29;20040;-81
2023/10/01 02:10:44;;;;;;;13.80;8.50;;;;;;;;;;4919670;29;20020;-81
2023/10/01 02:13:11;;;;;;;15.80;8.38;;;;;;;;;;4919234;29;20125;-81
2023/10/01 02:15:38;;;;;;;15.93;8.38;;;;;;;;;;4921721;29;20023;-81
2023/10/01 02:18:04;;;;;;;15.70;7.57;;;;;;;;;;4924630;29;20024;-81
2023/10/01 02:20:33;;;;;;;12.40;7.40;;;;;;;;;;4924867;29;20435;-81
2023/10/01 02:23:02;;;;;;;16.67;8.75;;;;;;;;;;4927993;29;20617;-81
2023/10/01 02:25:37;;;;;;;16.02;8.23;;;;;;;;;;4927872;29;20023;-81
2023/10/01 02:28:13;;;;;;;15.93;7.57;;;;;;;;;;4928149;29;20040;-81
2023/10/01 02:30:44;;;;;;;14.73;7.63;;;;;;;;;;4929729;29;20115;-81
2023/10/01 02:33:17;;;;;;;10.70;7.05;;;;;;;;;;4921023;29;20027;-81
2023/10/01 02:35:55;;;;;;;14.23;7.93;;;;;;;;;;4919229;29;20024;-81
2023/10/01 02:38:36;;;;;;;15.80;7.10;;;;;;;;;;4918821;29;20383;-81
2023/10/01 02:41:03;;;;;;;13.68;7.55;;;;;;;;;;4918894;29;20482;-81
2023/10/01 02:43:41;;;;;;;18.45;7.70;;;;;;;;;;4919061;29;20024;-81
2023/10/01 02:46:12;;;;;;;14.10;6.50;;;;;;;;;;4919096;29;20475;-81
2023/10/01 02:48:42;;;;;;;12.00;6.32;;;;;;;;;;4918696;29;20030;-81
2023/10/01 02:51:14;;;;;;;;;;;;;;;;;;4918711;29;20104;-81
2023/10/01 02:54:05;;;;;;;16.48;6.85;;;;;;;;;;4918418;29;19971;-81
2023/10/01 02:56:32;;;;;;;15.82;6.43;;;;;;;;;;4918388;29;20156;-81
2023/10/01 02:59:07;;;;;;;12.57;5.95;;;;;;;;;;4918099;29;20020;-81
2023/10/01 03:01:34;;;;;;;17.45;6.55;;;;;;;;;;4918050;29;20071;-81
2023/10/01 03:04:05;;;;;;;12.85;6.28;;;;;;;;;;4918333;29;20032;-81
2023/10/01 03:06:33;;;;;;;13.48;6.40;;;;;;;;;;4920073;29;20356;-81
2023/10/01 03:09:00;;;;;;;15.68;6.45;;;;;;;;;;4922716;29;20392;-81
2023/10/01 03:11:34;;;;;;;13.85;6.80;;;;;;;;;;4922753;29;20427;-81
2023/10/01 03:14:09;;;;;;;12.32;6.25;;;;;;;;;;4923869;29;20027;-81
2023/10/01 03:16:53;;;;;;;15.05;6.05;;;;;;;;;;4923429;29;20111;-81
2023/10/01 03:19:25;;;;;;;10.27;5.22;;;;;;;;;;4923245;29;20048;-81
2023/10/01 03:24:31;;;;;;;14.80;6.00;;;;;;;;;;4918658;29;20051;-81
2023/10/01 03:26:59;;;;;;;16.20;6.05;;;;;;;;;;4918508;29;20024;-81
2023/10/01 03:29:34;;;;;;;12.05;5.60;;;;;;;;;;4918719;29;20024;-81
2023/10/01 03:34:52;;;;;;;14.45;5.57;;;;;;;;;;4918436;29;20168;-81
2023/10/01 03:37:19;;;;;;;10.98;5.88;;;;;;;;;;4918613;29;20031;-81
2023/10/01 03:39:50;;;;;;;13.00;5.82;;;;;;;;;;4924017;29;20031;-81
2023/10/01 03:42:21;;;;;;;12.60;6.30;;;;;;;;;;4929791;29;20016;-81
2023/10/01 03:47:34;;;;;;;11.35;5.22;;;;;;;;;;4929790;29;20064;-83
2023/10/01 03:50:00;;;;;;;18.70;6.10;;;;;;;;;;4927111;29;20430;-82
2023/10/01 03:52:29;;;;;;;13.68;5.95;;;;;;;;;;4923083;29;20080;-82
2023/10/01 03:57:24;;;;;;;14.80;6.40;;;;;;;;;;4917851;29;20177;-82
2023/10/01 03:59:52;;;;;;;15.00;6.30;;;;;;;;;;4917829;29;20058;-82
2023/10/01 04:02:42;;;;;;;12.98;6.55;;;;;;;;;;4918683;29;20053;-82
2023/10/01 04:05:21;;;;;;;12.38;5.38;;;;;;;;;;4917868;29;20024;-82
2023/10/01 04:07:48;;;;;;;12.38;6.28;;;;;;;;;;4917715;29;20035;-82
2023/10/01 04:10:19;;;;;;;15.27;5.70;;;;;;;;;;4917796;29;20032;-82
2023/10/01 04:12:49;;;;;;;14.68;5.70;;;;;;;;;;4918198;29;20024;-82
2023/10/01 04:15:31;;;;;;;16.13;6.50;;;;;;;;;;4920944;29;20020;-82
2023/10/01 04:20:47;;;;;;;16.98;6.18;;;;;;;;;;4921216;29;20032;-82
2023/10/01 04:23:21;;;;;;;15.52;5.97;;;;;;;;;;4921025;29;20024;-82
2023/10/01 04:25:51;;;;;;;14.40;6.22;;;;;;;;;;4920600;29;20027;-82
2023/10/01 04:28:18;;;;;;;13.13;6.13;;;;;;;;;;4921127;29;20060;-82
2023/10/01 04:30:45;;;;;;;15.43;7.00;;;;;;;;;;4921785;29;20035;-82
2023/10/01 04:33:17;;;;;;;17.73;7.55;;;;;;;;;;4919864;29;20054;-82
2023/10/01 04:35:51;;;;;;;14.93;6.75;;;;;;;;;;4922122;29;20032;-82
2023/10/01 04:38:26;;;;;;;18.92;7.32;;;;;;;;;;4919802;29;20028;-82
2023/10/01 04:40:52;;;;;;;11.13;6.88;;;;;;;;;;4921912;29;20060;-82
2023/10/01 04:43:25;;;;;;;14.48;7.05;;;;;;;;;;4921539;29;20028;-82
2023/10/01 04:45:52;;;;;;;14.35;7.45;;;;;;;;;;4921651;29;20027;-82
2023/10/01 04:48:24;;;;;;;16.08;7.45;;;;;;;;;;4921743;29;20032;-82
2023/10/01 04:50:53;;;;;;;17.10;7.82;;;;;;;;;;4922709;29;20442;-82
2023/10/01 04:53:23;;;;;;;15.38;7.97;;;;;;;;;;4921545;29;20039;-83
2023/10/01 04:56:05;;;;;;;18.30;8.35;;;;;;;;;;4919490;29;20119;-80
2023/10/01 04:58:38;;;;;;;13.10;7.80;;;;;;;;;;4921318;29;20020;-83
2023/10/01 05:01:10;;;;;;;22.60;8.48;;;;;;;;;;4920536;29;20391;-81
2023/10/01 05:03:40;;;;;;;17.33;8.45;;;;;;;;;;4918812;29;20035;-81
2023/10/01 05:06:09;;;;;;;19.77;7.28;;;;;;;;;;4920067;29;20032;-80
2023/10/01 05:08:39;;;;;;;18.75;8.38;;;;;;;;;;4920411;29;20059;-80
2023/10/01 05:11:10;;;;;;;21.38;8.30;;;;;;;;;;4920281;29;20035;-80
2023/10/01 05:13:39;;;;;;;16.55;8.32;;;;;;;;;;4920353;29;20392;-81
2023/10/01 05:16:06;;;;;;;21.70;8.57;;;;;;;;;;4920000;29;20390;-80
2023/10/01 05:18:33;;;;;;;21.50;9.15;;;;;;;;;;4921532;29;20026;-80
2023/10/01 05:20:59;;;;;;;18.00;8.15;;;;;;;;;;4924847;29;20027;-81
2023/10/01 05:23:29;;;;;;;19.67;9.10;;;;;;;;;;4924086;29;20509;-81
2023/10/01 05:25:56;;;;;;;22.60;8.32;;;;;;;;;;4924089;29;20525;-81
2023/10/01 05:28:31;;;;;;;19.98;8.52;;;;;;;;;;4925032;29;20352;-81
2023/10/01 05:31:14;;;;;;;21.13;8.70;;;;;;;;;;4923738;29;20052;-81
2023/10/01 05:33:45;;;;;;;19.98;8.70;;;;;;;;;;4925349;29;20045;-81
2023/10/01 05:36:12;;;;;;;16.63;7.82;;;;;;;;;;4921800;29;20028;-81
2023/10/01 05:38:38;;;;;;;20.20;9.07;;;;;;;;;;4920243;29;20028;-80
2023/10/01 05:41:05;;;;;;;21.60;8.38;;;;;;;;;;4920078;29;20125;-80
2023/10/01 05:43:43;;;;;;;18.95;8.48;;;;;;;;;;4919757;29;20028;-80
2023/10/01 05:46:11;;;;;;;16.30;7.93;;;;;;;;;;4919847;29;20062;-81
2023/10/01 05:48:39;;;;;;;18.63;7.68;;;;;;;;;;4919855;29;20032;-81
2023/10/01 05:51:06;;;;;;;17.05;7.78;;;;;;;;;;4920002;29;20024;-81
2023/10/01 05:53:32;;;;;;;18.58;7.68;;;;;;;;;;4919172;29;20016;-80
2023/10/01 05:56:06;;;;;;;17.92;7.05;;;;;;;;;;4919234;29;20088;-81
2023/10/01 05:58:32;;;;;;;14.93;6.88;;;;;;;;;;4919099;29;20020;-80
2023/10/01 06:01:05;;;;;;;15.15;6.80;;;;;;;;;;4917959;29;20060;-80
2023/10/01 06:03:31;;;;;;;14.30;7.00;;;;;;;;;;4919071;29;20024;-80
2023/10/01 06:06:23;;;;;;;17.27;6.82;;;;;;;;;;4903106;29;20084;-83
2023/10/01 06:08:46;;;;;;;16.52;7.20;;;;;;;;;;4899493;29;20036;-84
2023/10/01 06:11:15;;;;;;;18.10;7.03;;;;;;;;;;4899516;29;20080;-84
2023/10/01 06:13:56;;;;;;;15.50;6.47;;;;;;;;;;4899603;29;20016;-84
2023/10/01 06:16:23;;;;;;;21.60;6.93;;;;;;;;;;4899788;29;20036;-84
2023/10/01 06:18:56;;;;;;;18.48;6.90;;;;;;;;;;4900100;29;20052;-84
2023/10/01 06:21:23;;;;;;;13.20;6.10;;;;;;;;;;4900815;29;20024;-84
2023/10/01 06:23:49;;;;;;;19.40;7.03;;;;;;;;;;4898677;29;20031;-84
2023/10/01 06:26:39;;;;;;;11.15;5.90;;;;;;;;;;4898240;29;20032;-84
2023/10/01 06:29:07;;;;;;;12.25;5.90;;;;;;;;;;4898226;29;20112;-84
2023/10/01 06:34:23;;;;;;;17.67;6.20;;;;;;;;;;4899614;29;20040;-84
2023/10/01 06:36:57;;;;;;;19.35;6.47;;;;;;;;;;4897549;29;20128;-84
2023/10/01 06:39:24;;;;;;;18.77;5.72;;;;;;;;;;4898365;29;20070;-84
2023/10/01 06:41:52;;;;;;;12.95;5.35;;;;;;;;;;4898590;29;20028;-84
2023/10/01 06:44:19;;;;;;;18.52;6.57;;;;;;;;;;4898160;29;20060;-85
2023/10/01 06:46:48;;;;;;;14.95;6.65;;;;;;;;;;4898722;29;20040;-84
2023/10/01 06:49:18;;;;;;;13.27;6.00;;;;;;;;;;4898392;29;20060;-84
2023/10/01 06:51:44;;;;;;;14.25;6.63;;;;;;;;;;4898714;29;20384;-84
2023/10/01 06:54:11;;;;;;;10.98;6.55;;;;;;;;;;4897977;29;20103;-84
2023/10/01 06:56:43;;;;;;;15.30;6.10;;;;;;;;;;4898207;29;20555;-84
2023/10/01 07:01:47;;;;;;;13.52;6.35;;;;;;;;;;4900236;29;20045;-85
2023/10/01 07:04:14;;;;;;;12.95;6.18;;;;;;;;;;4905177;29;20032;-85
2023/10/01 07:06:40;;;;;;;14.25;6.47;;;;;;;;;;4907165;29;20100;-85
2023/10/01 07:09:07;;;;;;;14.00;5.28;;;;;;;;;;4902291;29;20132;-85
2023/10/01 07:11:34;;;;;;;14.07;6.10;;;;;;;;;;4898421;29;20423;-85
2023/10/01 07:14:02;;;;;;;16.98;6.20;;;;;;;;;;4897793;29;20071;-84
2023/10/01 07:16:44;;;;;;;17.42;6.53;;;;;;;;;;4907071;29;20062;-86
2023/10/01 07:19:12;;;;;;;14.63;6.20;;;;;;;;;;4909125;29;20039;-85
2023/10/01 07:21:41;;;;;;;14.27;6.60;;;;;;;;;;4916451;29;20085;-85
2023/10/01 07:24:10;;;;;;;14.85;6.53;;;;;;;;;;4917950;29;20043;-85
2023/10/01 07:26:40;;;;;;;15.38;6.53;;;;;;;;;;4916276;29;20542;-85
2023/10/01 07:29:06;;;;;;;16.42;7.13;;;;;;;;;;4916812;29;20069;-85
2023/10/01 07:31:35;;;;;;;15.68;6.53;;;;;;;;;;4916575;29;20032;-84
2023/10/01 07:34:12;;;;;;;17.10;6.93;;;;;;;;;;4917062;29;20083;-85
2023/10/01 07:36:38;;;;;;;14.68;5.95;;;;;;;;;;4917395;29;20391;-85
2023/10/01 07:39:04;;;;;;;14.48;6.78;;;;;;;;;;4916843;29;20025;-85
2023/10/01 07:41:38;;;;;;;18.15;6.78;;;;;;;;;;4913439;29;20036;-84
2023/10/01 07:44:08;;;;;;;17.45;6.93;;;;;;;;;;4898894;29;20388;-85
2023/10/01 07:46:34;;;;;;;21.40;6.63;;;;;;;;;;4898699;29;20456;-85
2023/10/01 07:49:00;;;;;;;14.30;6.03;;;;;;;;;;4900035;29;20131;-81
2023/10/01 07:51:26;;;;;;;18.58;6.25;;;;;;;;;;4903628;29;20029;-81
2023/10/01 07:53:53;;;;;;;17.27;6.75;;;;;;;;;;4904004;29;20036;-86
2023/10/01 07:56:21;;;;;;;18.50;7.40;;;;;;;;;;4900730;29;20489;-86
2023/10/01 07:58:48;;;;;;;16.88;7.18;;;;;;;;;;4900885;29;20032;-87
2023/10/01 08:04:06;;;;;;;19.38;7.38;;;;;;;;;;4902810;29;20036;-88
2023/10/01 08:06:34;;;;;;;18.35;6.70;;;;;;;;;;4900635;29;20020;-86
2023/10/01 08:09:05;;;;;;;16.70;6.55;;;;;;;;;;4901077;29;20040;-87
2023/10/01 08:14:16;;;;;;;20.67;6.53;;;;;;;;;;4902097;29;20181;-87
2023/10/01 08:16:48;;;;;;;14.93;6.50;;;;;;;;;;4900616;29;20077;-87
2023/10/01 08:19:23;;;;;;;13.68;5.88;;;;;;;;;;4900550;29;20032;-87
2023/10/01 08:21:53;;;;;;;13.40;5.93;;;;;;;;;;4900986;29;20160;-86
2023/10/01 08:24:33;;;;;;;14.15;5.88;;;;;;;;;;4901205;29;20087;-87
2023/10/01 08:27:03;;;;;;;15.88;6.60;;;;;;;;;;4900322;29;20029;-87
2023/10/01 08:29:59;;;;;;;13.93;6.45;;;;;;;;;;4900098;29;20047;-87
2023/10/01 08:32:22;;;;;;;16.60;6.55;;;;;;;;;;4901898;29;20028;-86
2023/10/01 08:35:01;;;;;;;18.55;6.70;;;;;;;;;;4900192;29;20025;-87
2023/10/01 08:37:31;;;;;;;15.33;6.87;;;;;;;;;;4900327;29;20032;-88
2023/10/01 08:40:00;;;;;;;17.33;6.40;;;;;;;;;;4900947;29;20029;-87
2023/10/01 08:42:29;;;;;;;18.07;6.53;;;;;;;;;;4900869;29;20060;-86
2023/10/01 08:45:02;;;;;;;15.40;6.65;;;;;;;;;;4900297;29;20115;-86
2023/10/01 08:47:32;;;;;;;14.70;6.75;;;;;;;;;;4900422;29;20070;-87
2023/10/01 08:50:15;;;;;;;;;;;;;;;;;;4901049;29;20040;-87
2023/10/01 08:52:52;;;;;;;14.90;6.30;;;;;;;;;;4900504;29;19912;-87
2023/10/01 08:55:20;;;;;;;15.05;6.15;;;;;;;;;;4900552;29;20039;-86
2023/10/01 08:57:46;;;;;;;16.00;7.25;;;;;;;;;;4900358;29;20040;-86
2023/10/01 09:00:21;;;;;;;20.13;6.53;;;;;;;;;;4898636;29;20064;-87
2023/10/01 09:03:10;;;;;;;15.60;6.57;;;;;;;;;;4899791;29;20028;-87
2023/10/01 09:05:37;;;;;;;21.25;7.70;;;;;;;;;;4900591;29;20036;-86
2023/10/01 09:08:26;;;;;;;15.50;6.90;;;;;;;;;;4899776;29;20032;-86
2023/10/01 09:10:53;;;;;;;14.60;6.50;;;;;;;;;;4901287;29;20055;-87
2023/10/01 09:13:23;;;;;;;16.20;6.80;;;;;;;;;;4899474;29;20032;-87
2023/10/01 09:15:55;;;;;;;16.23;6.43;;;;;;;;;;4900871;29;20054;-87
2023/10/01 09:18:23;;;;;;;17.17;7.22;;;;;;;;;;4900269;29;20029;-87
2023/10/01 09:23:58;;;;;;;17.33;7.35;;;;;;;;;;4904579;29;20039;-88
2023/10/01 09:26:37;;;;;;;16.77;6.78;;;;;;;;;;4900089;29;20024;-87
2023/10/01 09:29:13;;;;;;;19.38;6.88;;;;;;;;;;4908135;29;20037;-88
2023/10/01 09:31:52;;;;;;;16.67;6.70;;;;;;;;;;4899062;29;20464;-87
2023/10/01 09:34:31;;;;;;;18.35;6.97;;;;;;;;;;4899357;29;20032;-87
2023/10/01 09:43:02;;;;;;;19.35;6.57;;;;;;;;;;4900497;29;20028;-87
2023/10/01 09:45:37;;;;;;;15.95;6.43;;;;;;;;;;4898855;29;20028;-87
2023/10/01 09:48:04;;;;;;;17.20;6.68;;;;;;;;;;4899369;29;20032;-87
2023/10/01 09:50:43;;;;;;;22.10;6.82;;;;;;;;;;4899787;29;20060;-87
2023/10/01 09:53:13;;;;;;;16.23;6.43;;;;;;;;;;4898829;29;20052;-87
2023/10/01 09:55:47;;;;;;;14.60;5.90;;;;;;;;;;4898937;29;20040;-87
2023/10/01 09:58:20;;;;;;;16.77;6.90;;;;;;;;;;4899003;29;20048;-87
2023/10/01 10:00:49;;;;;;;18.33;6.82;;;;;;;;;;4897998;29;20101;-87
2023/10/01 10:03:16;;;;;;;14.93;5.93;;;;;;;;;;4898865;29;20029;-87
2023/10/01 10:05:43;;;;;;;16.02;6.35;;;;;;;;;;4899298;29;20489;-87
2023/10/01 10:08:26;;;;;;;20.58;7.40;;;;;;;;;;4899188;29;20028;-87
2023/10/01 10:10:55;;;;;;;16.67;6.65;;;;;;;;;;4897817;29;20036;-87
2023/10/01 10:13:36;;;;;;;18.63;6.30;;;;;;;;;;4899303;29;20112;-87
2023/10/01 10:19:05;;;;;;;14.60;6.40;;;;;;;;;;4900036;29;20168;-87
2023/10/01 10:21:49;;;;;;;20.65;6.30;;;;;;;;;;4898239;29;20619;-87
2023/10/01 10:24:28;;;;;;;14.80;6.53;;;;;;;;;;4898608;29;20471;-87
2023/10/01 10:26:57;;;;;;;17.67;7.17;;;;;;;;;;4899137;29;20043;-87
2023/10/01 10:29:24;;;;;;;16.98;7.07;;;;;;;;;;4898920;29;20033;-87
2023/10/01 10:32:09;;;;;;;18.67;7.15;;;;;;;;;;4898612;29;20108;-86
2023/10/01 10:34:47;;;;;;;15.15;6.15;;;;;;;;;;4899715;29;20028;-86
2023/10/01 10:37:32;;;;;;;19.00;6.85;;;;;;;;;;4898725;29;20028;-87
2023/10/01 10:40:12;;;;;;;17.20;6.57;;;;;;;;;;4897891;29;20498;-87
2023/10/01 10:42:39;;;;;;;16.58;6.40;;;;;;;;;;4898563;29;20037;-87
2023/10/01 10:45:23;;;;;;;17.80;7.00;;;;;;;;;;4898072;29;20476;-88
2023/10/01 10:48:01;;;;;;;14.75;6.45;;;;;;;;;;4898610;29;20486;-87
2023/10/01 10:50:48;;;;;;;20.40;7.45;;;;;;;;;;4898481;29;20028;-87
2023/10/01 10:53:21;;;;;;;18.35;7.20;;;;;;;;;;4900145;29;20124;-87
2023/10/01 10:56:16;;;;;;;13.75;6.10;;;;;;;;;;4901492;29;20031;-87
2023/10/01 10:59:04;;;;;;;13.07;6.50;;;;;;;;;;4886087;29;20053;-87
2023/10/01 11:01:43;;;;;;;15.45;6.80;;;;;;;;;;4896507;29;20112;-87
2023/10/01 11:04:09;;;;;;;17.63;7.47;;;;;;;;;;4898420;29;20036;-87
2023/10/01 11:06:42;;;;;;;14.50;7.10;;;;;;;;;;4897660;29;20451;-87
2023/10/01 11:09:25;;;;;;;17.00;7.22;;;;;;;;;;4898379;29;20028;-87
2023/10/01 11:11:57;;;;;;;17.67;7.32;;;;;;;;;;4897512;29;20056;-87
2023/10/01 11:14:25;;;;;;;18.10;7.47;;;;;;;;;;4897821;29;20080;-87
2023/10/01 11:16:51;;;;;;;15.68;6.75;;;;;;;;;;4897674;29;20131;-87
2023/10/01 11:19:21;;;;;;;22.05;7.22;;;;;;;;;;4897471;29;20028;-87
2023/10/01 11:21:55;;;;;;;18.00;7.07;;;;;;;;;;4897492;29;20128;-87
2023/10/01 11:24:25;;;;;;;15.07;6.10;;;;;;;;;;4901431;29;20106;-87
2023/10/01 11:27:11;;;;;;;15.63;6.47;;;;;;;;;;4902284;29;20049;-86
2023/10/01 11:29:40;;;;;;;17.95;6.95;;;;;;;;;;4901883;29;20028;-86
2023/10/01 11:32:06;;;;;;;15.43;6.95;;;;;;;;;;4901444;29;20028;-86
2023/10/01 11:34:45;;;;;;;15.30;7.13;;;;;;;;;;4901615;29;20035;-86
2023/10/01 11:37:18;;;;;;;16.93;7.47;;;;;;;;;;4901548;29;20507;-86
2023/10/01 11:39:52;;;;;;;13.02;6.63;;;;;;;;;;4901300;29;20271;-86
2023/10/01 11:42:29;;;;;;;15.95;6.68;;;;;;;;;;4901376;29;20108;-87
2023/10/01 11:44:55;;;;;;;17.70;7.70;;;;;;;;;;4901192;29;20021;-87
2023/10/01 11:47:34;;;;;;;15.45;6.82;;;;;;;;;;4901134;29;20583;-87
2023/10/01 11:50:09;;;;;;;17.30;6.88;;;;;;;;;;4901078;29;20043;-86
2023/10/01 11:52:37;;;;;;;15.50;6.88;;;;;;;;;;4901181;29;20119;-86
2023/10/01 11:55:18;;;;;;;18.23;7.68;;;;;;;;;;4902159;29;20080;-86
2023/10/01 11:57:51;;;;;;;17.30;6.78;;;;;;;;;;4902074;29;20496;-86
2023/10/01 12:00:52;;;;;;;16.52;7.35;;;;;;;;;;4900744;29;20087;-86
2023/10/01 12:03:10;;;;;;;16.85;7.18;;;;;;;;;;4905580;29;20436;-87
2023/10/01 12:05:42;;;;;;;14.77;7.28;;;;;;;;;;4908686;29;20398;-87
2023/10/01 12:08:54;;;;;;;16.20;7.22;;;;;;;;;;4903219;29;20096;-86
2023/10/01 12:11:26;;;;;;;16.27;7.50;;;;;;;;;;4910748;29;20033;-88
2023/10/01 12:14:04;;;;;;;19.58;7.20;;;;;;;;;;4906945;29;20032;-87
2023/10/01 12:16:30;;;;;;;16.70;6.82;;;;;;;;;;4901902;29;20383;-87
2023/10/01 12:19:21;;;;;;;16.63;7.03;;;;;;;;;;4901770;29;20104;-87
2023/10/01 12:21:42;;;;;;;16.92;7.72;;;;;;;;;;4901298;29;20036;-87
2023/10/01 12:24:12;;;;;;;18.30;7.13;;;;;;;;;;4900764;29;20028;-87
2023/10/01 12:26:39;;;;;;;16.10;6.88;;;;;;;;;;4900900;29;20032;-88
2023/10/01 12:29:12;;;;;;;15.60;6.07;;;;;;;;;;4900389;29;20028;-87
2023/10/01 12:31:40;;;;;;;17.35;6.75;;;;;;;;;;4901633;29;20032;-87
2023/10/01 12:34:06;;;;;;;17.33;6.72;;;;;;;;;;4900180;29;20024;-87
2023/10/01 12:36:42;;;;;;;16.25;6.32;;;;;;;;;;4900246;29;20040;-87
2023/10/01 12:44:25;;;;;;;16.70;6.55;;;;;;;;;;4901453;29;20025;-87
2023/10/01 12:46:55;;;;;;;13.57;7.22;;;;;;;;;;4900276;29;20714;-87
2023/10/01 12:49:21;;;;;;;14.18;6.57;;;;;;;;;;4900516;29;20491;-87
2023/10/01 12:51:54;;;;;;;14.43;6.50;;;;;;;;;;4900163;29;20100;-87
2023/10/01 12:54:25;;;;;;;14.02;6.22;;;;;;;;;;4900438;29;20137;-87
2023/10/01 12:57:18;;;;;;;13.27;6.57;;;;;;;;;;4899984;29;20031;-87
2023/10/01 12:59:46;;;;;;;13.18;6.35;;;;;;;;;;4899790;29;20035;-87
2023/10/01 13:02:22;;;;;;;13.60;6.65;;;;;;;;;;4898869;29;20049;-87
2023/10/01 13:05:16;;;;;;;16.02;6.75;;;;;;;;;;4899880;29;20024;-87
2023/10/01 13:07:42;;;;;;;14.98;6.75;;;;;;;;;;4900662;29;20041;-87
2023/10/01 13:10:08;;;;;;;17.67;6.72;;;;;;;;;;4900571;29;20032;-87
2023/10/01 13:12:39;;;;;;;14.45;6.60;;;;;;;;;;4899634;29;20104;-87
2023/10/01 13:15:15;;;;;;;15.82;7.28;;;;;;;;;;4900228;29;20101;-87
2023/10/01 13:17:56;;;;;;;17.25;7.25;;;;;;;;;;4900330;29;20119;-87
2023/10/01 13:20:22;;;;;;;16.77;7.03;;;;;;;;;;4900040;29;20088;-87
2023/10/01 13:22:52;;;;;;;18.15;7.15;;;;;;;;;;4899483;29;20043;-87
2023/10/01 13:25:19;;;;;;;16.40;7.07;;;;;;;;;;4899512;29;20028;-87
2023/10/01 13:27:50;;;;;;;16.23;7.03;;;;;;;;;;4899405;29;20040;-87
2023/10/01 13:30:22;;;;;;;16.88;7.15;;;;;;;;;;4899712;29;20036;-87
2023/10/01 13:35:36;;;;;;;14.43;7.45;;;;;;;;;;4900883;29;20040;-87
2023/10/01 14:11:03;;;;;;;17.23;7.57;;;;;;;;;;4899747;29;20043;-86
2023/10/01 14:13:34;;;;;;;14.85;7.70;;;;;;;;;;4899763;29;20024;-86
2023/10/01 14:16:17;;;;;;;16.92;7.45;;;;;;;;;;4899765;29;20076;-86
2023/10/01 14:19:13;;;;;;;15.50;7.75;;;;;;;;;;4898870;29;20037;-86
2023/10/01 14:21:39;;;;;;;19.45;7.93;;;;;;;;;;4898106;29;20115;-86
2023/10/01 14:26:51;;;;;;;19.05;8.65;;;;;;;;;;4899604;29;20093;-86
2023/10/01 14:29:22;;;;;;;18.63;7.45;;;;;;;;;;4898221;29;20028;-86
2023/10/01 14:31:54;;;;;;;17.25;7.65;;;;;;;;;;4898403;29;20395;-86
2023/10/01 14:34:21;;;;;;;19.35;7.85;;;;;;;;;;4898698;29;20345;-86
2023/10/01 14:36:51;;;;;;;16.88;8.30;;;;;;;;;;4898035;29;20036;-86
2023/10/01 14:39:18;;;;;;;16.05;7.20;;;;;;;;;;4898041;29;20368;-86
2023/10/01 14:41:50;;;;;;;15.07;7.53;;;;;;;;;;4898880;29;20475;-86
2023/10/01 14:44:24;;;;;;;18.10;7.70;;;;;;;;;;4898780;29;20386;-86
2023/10/01 14:46:52;;;;;;;13.52;7.05;;;;;;;;;;4898892;29;20029;-86
2023/10/01 14:49:19;;;;;;;14.90;7.72;;;;;;;;;;4898020;29;20028;-86
2023/10/01 14:51:48;;;;;;;19.17;7.68;;;;;;;;;;4909620;29;20005;-86
2023/10/01 14:54:18;;;;;;;14.55;7.15;;;;;;;;;;4910056;29;20387;-86
2023/10/01 14:56:46;;;;;;;16.65;7.68;;;;;;;;;;4901487;29;20035;-86
2023/10/01 14:59:14;;;;;;;18.25;8.57;;;;;;;;;;4913331;29;20052;-86
2023/10/01 15:01:41;;;;;;;17.20;8.13;;;;;;;;;;4907772;29;20503;-86
2023/10/01 15:04:29;;;;;;;17.50;8.68;;;;;;;;;;4899160;29;20029;-86
2023/10/01 15:07:05;;;;;;;17.17;8.20;;;;;;;;;;4897856;29;20149;-86
2023/10/01 15:09:32;;;;;;;18.77;8.07;;;;;;;;;;4898396;29;20032;-85
2023/10/01 15:11:58;;;;;;;18.25;8.60;;;;;;;;;;4897772;29;20076;-86
2023/10/01 15:14:28;;;;;;;16.17;8.25;;;;;;;;;;4898043;29;20040;-86
2023/10/01 15:16:55;;;;;;;15.57;7.90;;;;;;;;;;4899003;29;20076;-86
2023/10/01 15:19:25;;;;;;;17.05;7.35;;;;;;;;;;4897737;29;20029;-85
2023/10/01 15:22:02;;;;;;;19.17;8.73;;;;;;;;;;4898547;29;20029;-86
2023/10/01 15:24:28;;;;;;;18.52;7.80;;;;;;;;;;4898147;29;20409;-85
2023/10/01 15:26:58;;;;;;;18.27;8.05;;;;;;;;;;4897395;29;20543;-86
2023/10/01 15:29:31;;;;;;;21.40;8.52;;;;;;;;;;4897315;29;20037;-86
2023/10/01 15:31:57;;;;;;;18.95;8.05;;;;;;;;;;4898110;29;20025;-85
2023/10/01 15:34:23;;;;;;;18.55;8.75;;;;;;;;;;4897171;29;20542;-86
2023/10/01 15:36:50;;;;;;;22.05;8.80;;;;;;;;;;4897480;29;20429;-86
2023/10/01 15:39:27;;;;;;;19.95;8.52;;;;;;;;;;4909405;29;20028;-86
2023/10/01 15:42:19;;;;;;;19.45;9.15;;;;;;;;;;4917243;29;20123;-86
2023/10/01 15:44:59;;;;;;;18.20;9.02;;;;;;;;;;4917310;29;20092;-86
2023/10/01 15:47:31;;;;;;;20.63;8.30;;;;;;;;;;4917755;29;20024;-85
2023/10/01 15:50:05;;;;;;;18.00;8.55;;;;;;;;;;4916343;29;20376;-85
2023/10/01 15:52:37;;;;;;;20.13;8.50;;;;;;;;;;4916184;29;20040;-85
2023/10/01 15:55:06;;;;;;;18.13;8.77;;;;;;;;;;4917452;29;20024;-85
2023/10/01 15:57:32;;;;;;;19.98;9.38;;;;;;;;;;4916368;29;20024;-85
2023/10/01 15:59:59;;;;;;;18.23;8.55;;;;;;;;;;4915641;29;20096;-85
2023/10/01 16:02:25;;;;;;;18.85;9.05;;;;;;;;;;4917677;29;20146;-85
2023/10/01 16:04:59;;;;;;;16.45;7.57;;;;;;;;;;4915914;29;20391;-85
2023/10/01 16:07:26;;;;;;;18.70;7.97;;;;;;;;;;4917336;29;20032;-85
2023/10/01 16:09:52;;;;;;;19.50;8.85;;;;;;;;;;4917888;29;20424;-85
2023/10/01 16:12:18;;;;;;;20.88;8.90;;;;;;;;;;4919304;29;20020;-85
2023/10/01 16:14:45;;;;;;;19.92;9.05;;;;;;;;;;4920436;29;20032;-86
2023/10/01 16:17:18;;;;;;;20.42;8.18;;;;;;;;;;4919606;29;20024;-86
2023/10/01 16:19:54;;;;;;;17.52;9.07;;;;;;;;;;4920583;29;20034;-86